Latest Weather Observations for Perisher Valley

IDN60801

Issued at 9:03 pm EDT Sunday 1 February 2015 (issued every 30 minutes, with the page automatically refreshed every 10 minutes)

About weather observations | Map of weather stations | Latest weather observations for NSW | Other Formats
Station Details ID: 071075 Name: PERISHER VALLEY AWS Lat: -36.41 Lon: 148.41 Height: 1738.0 m
Data from the previous 72 hours. | See also: Recent months at Perisher Valley
Date/Time
EDT
Temp
°C
App
Temp
°C
Dew
Point
Rel
Hum
%
Delta-T
°C
Wind Press
QNH
hPa
Press
MSL
hPa
Rain
since 9 am
mm
Dir
 
Spd
km/h
Gust
km/h
Spd
kts
Gust
kts
01/09:00pm 7.1 5.4 6.0 93 0.6 SE 4 17 2 9 - - 0.4
01/08:30pm 7.4 5.8 6.3 93 0.6 SE 4 15 2 8 - - 0.4
01/08:00pm 7.6 5.7 6.5 93 0.6 E 6 20 3 11 - - 0.4
01/07:30pm 8.1 6.3 7.2 94 0.5 SSE 6 15 3 8 - - 0.4
01/07:00pm 8.4 6.4 7.2 92 0.6 ESE 7 17 4 9 - - 0.4
01/06:30pm 8.7 7.4 7.5 92 0.6 ESE 4 9 2 5 - - 0.4
01/06:00pm 9.0 7.0 7.1 88 1.0 ESE 7 15 4 8 - - 0.0
01/05:30pm 9.5 7.2 7.3 86 1.2 E 9 17 5 9 - - 0.0
01/05:00pm 10.3 8.4 7.5 83 1.5 ESE 7 19 4 10 - - 0.0
01/04:30pm 10.6 8.7 7.5 81 1.6 ESE 7 22 4 12 - - 0.0
01/04:00pm 10.8 8.6 7.9 82 1.6 ESE 9 17 5 9 - - 0.0
01/03:30pm 11.5 9.6 7.6 77 2.1 SSE 7 17 4 9 - - 0.0
01/03:00pm 11.4 9.4 6.9 74 2.4 ESE 7 15 4 8 - - 0.0
01/02:30pm 11.3 9.5 7.2 76 2.2 S 6 17 3 9 - - 0.0
01/02:00pm 11.8 10.2 7.9 77 2.1 WNW 6 15 3 8 - - 0.0
01/01:30pm 10.0 8.1 7.4 84 1.4 ESE 7 15 4 8 - - 0.0
01/01:00pm 9.3 6.9 7.1 86 1.1 ESE 9 17 5 9 - - 0.0
01/12:30pm 10.1 8.2 7.7 85 1.3 SSE 7 17 4 9 - - 0.0
01/12:00pm 11.2 10.0 8.2 82 1.6 SSE 4 11 2 6 - - 0.0
01/11:30am 10.8 8.8 7.3 79 1.8 ESE 7 15 4 8 - - 0.0
01/11:00am 9.7 7.1 6.2 79 1.8 ESE 9 15 5 8 - - 0.0
01/10:30am 9.9 7.7 6.4 79 1.8 SE 7 13 4 7 - - 0.0
01/10:00am 9.9 7.8 6.8 81 1.6 SE 7 11 4 6 - - 0.0
01/09:30am 9.8 7.8 6.3 79 1.8 ESE 6 9 3 5 - - 0.0
01/09:00am 10.5 8.7 7.0 79 1.8 NE 6 13 3 7 - - 0.0
01/08:30am 8.9 6.9 6.3 84 1.3 NE 6 7 3 4 - - 0.0
01/08:00am 7.8 6.1 5.8 87 1.0 ENE 4 6 2 3 - - 0.0
01/07:30am 4.8 3.5 4.2 96 0.3 CALM 0 2 0 1 - - 0.0
01/07:00am 1.6 -0.2 1.0 96 0.3 CALM 0 4 0 2 - - 0.0
01/06:30am 1.9 0.1 1.3 96 0.3 CALM 0 4 0 2 - - 0.0
01/06:00am 2.7 0.6 2.0 95 0.3 SW 2 6 1 3 - - 0.0
01/05:30am 2.8 0.7 1.8 93 0.4 WSW 2 2 1 1 - - 0.0
01/05:00am 3.8 1.9 2.6 92 0.5 WSW 2 4 1 2 - - 0.0
01/04:30am 5.3 3.6 4.0 91 0.6 WSW 2 2 1 1 - - 0.0
01/04:00am 5.8 4.2 4.3 90 0.7 SW 2 9 1 5 - - 0.0
01/03:30am 5.9 4.0 4.7 92 0.6 SW 4 7 2 4 - - 0.0
01/03:00am 5.8 3.9 4.8 93 0.5 SSW 4 11 2 6 - - 0.0
01/02:30am 5.7 3.8 5.1 96 0.3 SSW 4 9 2 5 - - 0.0
01/02:00am 4.9 3.3 4.3 96 0.3 SW 2 2 1 1 - - 0.0
01/01:30am 3.6 1.7 2.6 93 0.4 WSW 2 4 1 2 - - 0.0
01/01:00am 3.7 1.4 2.5 92 0.5 SW 4 6 2 3 - - 0.0
01/12:30am 4.8 3.0 3.3 90 0.7 NE 2 2 1 1 - - 0.0
01/12:00am 5.4 4.0 3.6 88 0.8 CALM 0 2 0 1 - - 0.0
 
Date/Time
EDT
Temp
°C
App
Temp
°C
Dew
Point
Rel
Hum
%
Delta-T
°C
Wind Press
QNH
hPa
Press
MSL
hPa
Rain
since 9 am
mm
Dir
 
Spd
km/h
Gust
km/h
Spd
kts
Gust
kts
31/11:30pm 6.0 3.5 4.0 87 0.9 S 6 13 3 7 - - 0.0
31/11:00pm 6.0 4.3 3.8 86 1.0 S 2 7 1 4 - - 0.0
31/10:30pm 7.3 5.0 4.6 83 1.3 WSW 6 15 3 8 - - 0.0
31/10:00pm 7.3 4.0 4.4 82 1.4 WSW 11 19 6 10 - - 0.0
31/09:30pm 7.7 4.8 4.7 81 1.5 WSW 9 19 5 10 - - 0.0
31/09:00pm 7.8 5.4 5.3 84 1.2 WSW 7 15 4 8 - - 0.0
31/08:30pm 8.1 5.9 5.4 83 1.3 WSW 6 13 3 7 - - 0.0
31/08:00pm 8.4 6.6 5.2 80 1.6 WSW 4 11 2 6 - - 0.0
31/07:30pm 8.7 6.9 5.3 79 1.7 WSW 4 11 2 6 - - 0.0
31/07:00pm 8.6 6.2 5.2 79 1.7 SW 7 19 4 10 - - 0.0
31/06:30pm 8.7 5.8 4.9 77 1.9 SW 9 20 5 11 - - 0.0
31/06:00pm 9.9 7.5 5.3 73 2.3 SW 7 20 4 11 - - 0.0
31/05:30pm 9.7 7.4 5.9 77 1.9 SW 7 20 4 11 - - 0.0
31/05:00pm 10.3 7.6 5.5 72 2.4 SW 9 26 5 14 - - 0.0
31/04:30pm 12.7 9.8 6.5 66 3.3 SW 11 24 6 13 - - 0.0
31/04:00pm 12.2 9.6 6.0 66 3.2 SW 9 20 5 11 - - 0.0
31/03:30pm 11.1 8.7 5.4 68 2.9 SW 7 15 4 8 - - 0.0
31/03:00pm 10.7 7.4 4.8 67 3.0 SSW 11 22 6 12 - - 0.0
31/02:30pm 11.2 8.9 5.9 70 2.7 SW 7 24 4 13 - - 0.0
31/02:00pm 9.9 7.6 5.5 74 2.2 S 7 13 4 7 - - 0.0
31/01:30pm 9.1 6.4 5.7 79 1.7 ESE 9 19 5 10 - - 0.0
31/01:00pm 10.4 7.9 6.4 76 2.1 ESE 9 15 5 8 - - 0.0
31/12:30pm 10.5 7.4 5.5 71 2.5 S 11 22 6 12 - - 0.0
31/12:00pm 11.3 8.9 6.8 74 2.4 SSW 9 24 5 13 - - 0.0
31/11:30am 10.5 6.7 5.7 72 2.4 SSW 15 28 8 15 - - 0.0
31/11:00am 10.8 8.1 5.8 71 2.6 SW 9 22 5 12 - - 0.0
31/10:30am 10.1 7.2 4.9 70 2.6 SW 9 20 5 11 - - 0.0
31/10:00am 8.8 6.4 5.4 79 1.7 SW 7 17 4 9 - - 0.0
31/09:30am 8.2 5.8 5.1 81 1.5 SW 7 20 4 11 - - 0.0
31/09:00am 7.7 4.8 4.8 82 1.4 SW 9 20 5 11 - - 1.4
31/08:30am 6.9 3.9 3.9 81 1.4 SW 9 26 5 14 - - 1.4
31/08:00am 7.1 4.4 5.6 90 0.7 SW 9 19 5 10 - - 1.4
31/07:30am 4.8 2.8 4.2 96 0.3 SSW 4 11 2 6 - - 1.4
31/07:00am 2.5 0.4 1.8 95 0.3 SW 2 7 1 4 - - 1.4
31/06:30am 1.3 -1.4 0.6 95 0.3 WSW 4 7 2 4 - - 1.4
31/06:00am 1.8 -0.8 1.1 95 0.3 SW 4 9 2 5 - - 1.4
31/05:30am 1.4 -1.3 0.5 94 0.4 WSW 4 9 2 5 - - 1.4
31/05:00am 1.8 -0.5 0.6 92 0.5 SW 2 4 1 2 - - 1.4
31/04:30am 2.4 0.6 1.2 92 0.5 CALM 0 2 0 1 - - 1.4
31/04:00am 2.7 0.2 1.8 94 0.4 SW 4 11 2 6 - - 1.4
31/03:30am 3.0 0.9 2.0 93 0.4 ESE 2 7 1 4 - - 1.4
31/03:00am 3.8 0.9 2.8 93 0.5 SSW 7 17 4 9 - - 1.4
31/02:30am 3.8 1.2 3.1 95 0.3 SW 6 17 3 9 - - 1.4
31/02:00am 3.9 1.3 3.2 95 0.3 SW 6 13 3 7 - - 1.4
31/01:30am 3.8 1.2 3.1 95 0.3 SW 6 11 3 6 - - 1.4
31/01:00am 3.8 1.2 3.1 95 0.3 SW 6 11 3 6 - - 1.4
31/12:30am 3.6 0.9 2.7 94 0.4 SW 6 11 3 6 - - 1.4
31/12:00am 3.4 0.5 2.4 93 0.4 SSW 7 15 4 8 - - 1.4
 
Date/Time
EDT
Temp
°C
App
Temp
°C
Dew
Point
Rel
Hum
%
Delta-T
°C
Wind Press
QNH
hPa
Press
MSL
hPa
Rain
since 9 am
mm
Dir
 
Spd
km/h
Gust
km/h
Spd
kts
Gust
kts
30/11:30pm 3.9 1.6 3.0 94 0.4 SW 4 11 2 6 - - 1.4
30/11:00pm 4.0 1.4 3.1 94 0.4 SW 6 13 3 7 - - 1.4
30/10:30pm 3.9 1.1 3.0 94 0.4 SW 7 19 4 10 - - 1.4
30/10:00pm 4.0 1.2 3.1 94 0.4 SW 7 20 4 11 - - 1.4
30/09:30pm 4.2 1.6 3.0 92 0.5 SW 6 15 3 8 - - 1.4
30/09:00pm 4.3 1.7 3.3 93 0.5 SW 6 11 3 6 - - 1.4
30/08:30pm 4.8 2.1 3.8 93 0.5 SW 7 17 4 9 - - 1.4
30/08:00pm 5.3 3.3 4.4 94 0.4 SSW 4 7 2 4 - - 0.8
30/07:30pm 5.5 2.5 4.3 92 0.6 SSW 9 20 5 11 - - 0.8
30/07:00pm 5.6 2.7 4.6 93 0.5 S 9 20 5 11 - - 0.6
30/06:30pm 6.6 4.1 4.6 87 1.0 SW 7 17 4 9 - - 0.0
30/06:00pm 6.5 3.3 5.1 91 0.7 SSW 11 20 6 11 - - 0.0
30/05:30pm 6.2 3.4 5.0 92 0.6 SSW 9 22 5 12 - - 0.0
30/05:00pm 7.0 4.2 5.2 88 0.9 SSW 9 20 5 11 - - 0.0
30/04:30pm 7.8 4.2 4.9 82 1.4 S 13 24 7 13 - - 0.0
30/04:00pm 8.3 4.3 4.7 78 1.8 SSW 15 30 8 16 - - 0.0
30/03:30pm 8.8 5.6 5.2 78 1.8 SW 11 26 6 14 - - 0.0
30/03:00pm 8.6 5.1 5.4 80 1.6 SW 13 32 7 17 - - 0.0
30/02:30pm 9.2 5.2 5.0 75 2.1 SSW 15 33 8 18 - - 0.0
30/02:00pm 8.6 4.5 4.4 75 2.1 SSW 15 32 8 17 - - 0.0
30/01:30pm 8.8 3.1 4.8 76 2.0 SSW 24 39 13 21 - - 0.0
30/01:00pm 7.6 3.5 4.4 80 1.6 SSW 15 24 8 13 - - 0.0
30/12:30pm 8.7 4.8 5.4 80 1.7 SSW 15 32 8 17 - - 0.0
30/12:00pm 6.9 1.4 3.9 81 1.4 SSW 22 37 12 20 - - 0.0
30/11:30am 6.6 1.5 4.1 84 1.2 SSW 20 41 11 22 - - 0.0
30/11:00am 5.5 0.2 3.0 84 1.2 SSW 20 43 11 23 - - 0.0
30/10:30am 5.6 0.9 3.3 85 1.1 SSW 17 37 9 20 - - 0.0
30/10:00am 5.1 -0.1 3.4 89 0.8 SSW 20 39 11 21 - - 0.0
30/09:30am 4.3 -0.9 2.5 88 0.8 SSW 19 39 10 21 - - 0.0
30/09:00am 3.3 -2.2 1.8 90 0.7 SSW 20 33 11 18 - - 1.0
30/08:30am 2.5 -3.0 0.7 88 0.8 SSW 19 39 10 21 - - 1.0
30/08:00am 2.6 -2.4 1.1 90 0.6 SSW 17 32 9 17 - - 1.0
30/07:30am 1.7 -3.7 1.0 95 0.3 SSW 19 33 10 18 - - 1.0
30/07:00am 1.8 -3.9 0.6 92 0.5 SSW 20 35 11 19 - - 1.0
30/06:30am 1.9 -4.8 1.2 95 0.3 SSW 26 41 14 22 - - 1.0
30/06:00am 2.0 -3.0 1.1 94 0.4 SSW 17 37 9 20 - - 1.0
30/05:30am 2.0 -3.6 1.3 95 0.3 SSW 20 43 11 23 - - 1.0
30/05:00am 2.2 -2.8 1.6 96 0.3 SW 17 35 9 19 - - 0.8
30/04:30am 2.1 -2.9 1.4 95 0.3 SSW 17 28 9 15 - - 0.8
30/04:00am 2.0 -3.0 1.3 95 0.3 SW 17 32 9 17 - - 0.8
30/03:30am 1.9 -3.5 1.2 95 0.3 SSW 19 41 10 22 - - 0.8
30/03:00am 1.6 -3.5 0.7 94 0.4 SW 17 41 9 22 - - 0.8
30/02:30am 1.8 -3.7 0.8 93 0.4 SSW 19 43 10 23 - - 0.8
30/02:00am 2.0 -3.0 1.3 95 0.3 SSW 17 33 9 18 - - 0.8
30/01:30am 2.0 -3.4 1.4 96 0.3 SW 19 33 10 18 - - 0.8
30/01:00am 2.2 -2.5 1.2 93 0.4 SW 15 28 8 15 - - 0.8
30/12:30am 2.1 -2.9 1.5 96 0.3 SW 17 35 9 19 - - 0.8
30/12:00am 2.2 -2.8 1.2 93 0.4 SSW 17 35 9 19 - - 0.8
 
Date/Time
EDT
Temp
°C
App
Temp
°C
Dew
Point
Rel
Hum
%
Delta-T
°C
Wind Press
QNH
hPa
Press
MSL
hPa
Rain
since 9 am
mm
Dir
 
Spd
km/h
Gust
km/h
Spd
kts
Gust
kts
29/11:30pm 2.1 -3.3 1.2 94 0.4 SSW 19 35 10 19 - - 0.8
29/11:00pm 2.8 -2.1 2.2 96 0.3 SSW 17 37 9 20 - - 0.8
29/10:30pm 2.5 -2.8 2.1 97 0.2 SSW 19 35 10 19 - - 0.6
29/10:00pm 2.7 -2.2 2.1 96 0.3 SSW 17 35 9 19 - - 0.6
29/09:30pm 2.8 -0.9 2.4 97 0.2 SSW 11 30 6 16 - - 0.6

Other Formats:

Comma delimited format used in spreadsheet applications
http://www.bom.gov.au/fwo/IDN60801/IDN60801.94915.axf

JavaScript Object Notation format (JSON) in row-major order
http://www.bom.gov.au/fwo/IDN60801/IDN60801.94915.json